createdAt,value
2018-12-15T00:00:24.488Z,0.57
2018-12-15T00:02:52.682Z,0.56
2018-12-15T00:05:21.097Z,0.53
2018-12-15T00:07:49.309Z,0.57
2018-12-15T00:10:17.538Z,0.57
2018-12-15T00:12:45.716Z,0.55
2018-12-15T00:15:13.917Z,0.59
2018-12-15T00:17:42.090Z,0.60
2018-12-15T00:20:10.263Z,0.62
2018-12-15T00:22:38.464Z,0.55
2018-12-15T00:25:06.637Z,0.52
2018-12-15T00:27:34.808Z,0.68
2018-12-15T00:30:03.013Z,0.77
2018-12-15T00:32:31.206Z,0.66
2018-12-15T00:34:59.383Z,0.64
2018-12-15T00:37:27.584Z,0.77
2018-12-15T00:39:55.740Z,0.65
2018-12-15T00:42:32.951Z,0.54
2018-12-15T00:45:01.167Z,0.50
2018-12-15T00:47:29.346Z,0.47
2018-12-15T00:49:57.616Z,0.47
2018-12-15T00:52:25.795Z,0.49
2018-12-15T00:54:53.973Z,0.51
2018-12-15T00:57:22.196Z,0.49
2018-12-15T00:59:50.373Z,0.50
2018-12-15T01:02:18.543Z,0.52
2018-12-15T01:04:46.760Z,0.47
2018-12-15T01:07:14.937Z,0.44
2018-12-15T01:09:43.108Z,0.48
2018-12-15T01:12:11.390Z,0.44
2018-12-15T01:14:39.567Z,0.45
2018-12-15T01:17:07.741Z,0.46
2018-12-15T01:19:35.941Z,0.45
2018-12-15T01:22:04.118Z,0.45
2018-12-15T01:24:32.301Z,0.46
2018-12-15T01:27:00.490Z,0.47
2018-12-15T01:29:28.662Z,0.48
2018-12-15T01:31:57.008Z,0.42
2018-12-15T01:34:25.216Z,0.41
2018-12-15T01:36:53.386Z,0.40
2018-12-15T01:39:21.561Z,0.39
2018-12-15T01:41:49.751Z,0.38
2018-12-15T01:44:17.932Z,0.40
2018-12-15T01:46:46.145Z,0.35
2018-12-15T01:49:14.372Z,0.29
2018-12-15T01:51:42.587Z,0.33
2018-12-15T01:54:10.760Z,0.35
2018-12-15T01:56:38.996Z,0.38
2018-12-15T01:59:07.184Z,0.33
2018-12-15T02:01:35.451Z,0.29
2018-12-15T02:04:03.674Z,0.27
2018-12-15T02:06:31.848Z,0.27
2018-12-15T02:09:00.020Z,0.30
2018-12-15T02:11:28.241Z,0.28
2018-12-15T02:13:56.431Z,0.27
2018-12-15T02:16:24.662Z,0.28
2018-12-15T02:18:52.860Z,0.34
2018-12-15T02:21:21.034Z,0.32
2018-12-15T02:23:49.222Z,0.27
2018-12-15T02:26:17.548Z,0.21
2018-12-15T02:28:45.728Z,0.21
2018-12-15T02:31:14.007Z,0.19
2018-12-15T02:33:42.202Z,0.20
2018-12-15T02:36:10.377Z,0.23
2018-12-15T02:38:38.697Z,0.21
2018-12-15T02:41:06.924Z,0.20
2018-12-15T02:43:35.100Z,0.19
2018-12-15T02:46:03.411Z,0.21
2018-12-15T02:48:31.624Z,0.23
2018-12-15T02:50:59.808Z,0.25
2018-12-15T02:53:28.087Z,0.26
2018-12-15T02:55:56.335Z,0.28
2018-12-15T02:58:24.626Z,0.30
2018-12-15T03:00:52.807Z,0.30
2018-12-15T03:03:21.012Z,0.31
2018-12-15T03:05:49.185Z,0.25
2018-12-15T03:08:17.358Z,0.25
2018-12-15T03:10:45.555Z,0.26
2018-12-15T03:13:13.750Z,0.26
2018-12-15T03:15:41.940Z,0.23
2018-12-15T03:18:10.134Z,0.20
2018-12-15T03:20:38.323Z,0.20
2018-12-15T03:23:06.502Z,0.15
2018-12-15T03:25:34.712Z,0.13
2018-12-15T03:28:03.021Z,0.10
2018-12-15T03:30:31.199Z,0.12
2018-12-15T03:32:59.398Z,0.09
2018-12-15T03:35:27.579Z,0.07
2018-12-15T03:37:55.762Z,-0.01
2018-12-15T03:40:23.983Z,-0.07
2018-12-15T03:42:52.163Z,-0.04
2018-12-15T03:45:20.423Z,-0.05
2018-12-15T03:47:55.890Z,-0.01
2018-12-15T03:50:18.883Z,0.03
2018-12-15T03:52:47.247Z,0.00
2018-12-15T03:55:15.458Z,-0.05
2018-12-15T03:57:43.651Z,-0.05
2018-12-15T04:00:11.848Z,-0.04
2018-12-15T04:02:40.042Z,-0.04
2018-12-15T04:05:08.219Z,0.00
2018-12-15T04:07:36.399Z,0.00
2018-12-15T04:10:05.306Z,0.04
2018-12-15T04:12:33.503Z,-0.04
2018-12-15T04:15:01.697Z,-0.04
2018-12-15T04:17:29.901Z,-0.02
2018-12-15T04:19:58.096Z,0.02
2018-12-15T04:22:26.274Z,0.05
2018-12-15T04:24:54.525Z,0.05
2018-12-15T04:27:22.700Z,0.06
2018-12-15T04:29:50.893Z,0.07
2018-12-15T04:32:19.206Z,0.07
2018-12-15T04:34:47.395Z,0.07
2018-12-15T04:37:15.571Z,0.04
2018-12-15T04:39:43.878Z,0.05
2018-12-15T04:42:12.061Z,0.00
2018-12-15T04:44:40.236Z,0.02
2018-12-15T04:47:08.741Z,0.01
2018-12-15T04:49:36.922Z,0.04
2018-12-15T04:52:05.122Z,-0.02
2018-12-15T04:54:33.336Z,-0.05
2018-12-15T04:57:01.533Z,-0.05
2018-12-15T04:59:29.709Z,-0.01
2018-12-15T05:01:57.928Z,-0.04
2018-12-15T05:04:26.100Z,-0.08
2018-12-15T05:06:54.306Z,-0.06
2018-12-15T05:09:22.512Z,-0.10
2018-12-15T05:11:50.705Z,0.02
2018-12-15T05:14:18.900Z,0.02
2018-12-15T05:16:47.106Z,-0.06
2018-12-15T05:19:15.294Z,0.05
2018-12-15T05:21:43.473Z,0.00
2018-12-15T05:24:11.681Z,-0.01
2018-12-15T05:26:39.905Z,-0.04
2018-12-15T05:29:08.092Z,-0.04
2018-12-15T05:31:36.292Z,-0.13
2018-12-15T05:34:04.478Z,-0.12
2018-12-15T05:36:32.669Z,-0.12
2018-12-15T05:39:01.042Z,-0.16
2018-12-15T05:41:29.229Z,-0.16
2018-12-15T05:43:57.435Z,-0.11
2018-12-15T05:46:25.665Z,-0.19
2018-12-15T05:48:53.853Z,-0.20
2018-12-15T05:51:22.048Z,-0.18
2018-12-15T05:53:50.257Z,-0.20
2018-12-15T05:56:18.516Z,-0.29
2018-12-15T05:58:46.708Z,-0.41
2018-12-15T06:01:14.914Z,-0.32
2018-12-15T06:03:43.097Z,-0.33
2018-12-15T06:06:11.347Z,-0.33
2018-12-15T06:08:39.691Z,-0.42
2018-12-15T06:11:07.870Z,-0.38
2018-12-15T06:13:36.040Z,-0.37
2018-12-15T06:16:04.255Z,-0.39
2018-12-15T06:18:32.458Z,-0.35
2018-12-15T06:21:00.711Z,-0.31
2018-12-15T06:23:28.930Z,-0.27
2018-12-15T06:25:57.164Z,-0.27
2018-12-15T06:28:25.418Z,-0.25
2018-12-15T06:30:53.620Z,-0.22
2018-12-15T06:33:21.806Z,-0.22
2018-12-15T06:35:49.986Z,-0.20
2018-12-15T06:38:18.296Z,-0.07
2018-12-15T06:40:46.574Z,-0.05
2018-12-15T06:43:14.806Z,-0.07
2018-12-15T06:45:43.429Z,0.00
2018-12-15T06:48:11.701Z,-0.08
2018-12-15T06:50:39.886Z,-0.08
2018-12-15T06:53:08.078Z,-0.11
2018-12-15T06:55:36.271Z,-0.09
2018-12-15T06:58:04.462Z,-0.04
2018-12-15T07:00:32.682Z,-0.15
2018-12-15T07:03:00.875Z,-0.17
2018-12-15T07:05:29.061Z,-0.09
2018-12-15T07:07:57.274Z,-0.10
2018-12-15T07:10:25.465Z,-0.04
2018-12-15T07:12:53.684Z,-0.08
2018-12-15T07:15:21.912Z,-0.06
2018-12-15T07:17:50.099Z,-0.08
2018-12-15T07:20:18.282Z,-0.10
2018-12-15T07:22:46.484Z,-0.08
2018-12-15T07:25:14.672Z,-0.07
2018-12-15T07:27:42.868Z,-0.06
2018-12-15T07:30:11.071Z,-0.04
2018-12-15T07:32:39.246Z,0.05
2018-12-15T07:35:07.424Z,0.12
2018-12-15T07:37:35.633Z,0.15
2018-12-15T07:40:03.808Z,0.10
2018-12-15T07:42:32.637Z,0.16
2018-12-15T07:45:00.862Z,0.19
2018-12-15T07:47:29.119Z,0.27
2018-12-15T07:49:57.294Z,0.31
2018-12-15T07:52:25.620Z,0.30
2018-12-15T07:54:54.103Z,0.39
2018-12-15T07:57:22.281Z,0.36
2018-12-15T07:59:50.543Z,0.38
2018-12-15T08:02:18.717Z,0.37
2018-12-15T08:04:46.899Z,0.44
2018-12-15T08:07:15.373Z,0.51
2018-12-15T08:09:43.910Z,0.62
2018-12-15T08:12:17.817Z,0.65
2018-12-15T08:14:46.099Z,0.73
2018-12-15T08:17:14.283Z,1.23
2018-12-15T08:19:42.598Z,1.25
2018-12-15T08:22:10.769Z,1.22
2018-12-15T08:24:39.076Z,1.14
2018-12-15T08:27:07.410Z,1.14
2018-12-15T08:29:35.653Z,1.18
2018-12-15T08:32:03.828Z,1.11
2018-12-15T08:34:32.035Z,1.17
2018-12-15T08:37:00.213Z,1.17
2018-12-15T08:39:28.394Z,1.24
2018-12-15T08:41:56.589Z,1.28
2018-12-15T08:44:24.770Z,1.35
2018-12-15T08:46:53.298Z,1.51
2018-12-15T08:49:21.542Z,1.55
2018-12-15T08:51:49.718Z,1.73
2018-12-15T08:54:17.915Z,1.60
2018-12-15T08:56:46.136Z,1.65
2018-12-15T08:59:14.315Z,1.83
2018-12-15T09:01:42.507Z,2.06
2018-12-15T09:04:10.711Z,2.06
2018-12-15T09:06:39.187Z,2.23
2018-12-15T09:09:07.358Z,2.40
2018-12-15T09:11:35.564Z,2.31
2018-12-15T09:14:03.758Z,2.46
2018-12-15T09:16:31.969Z,2.56
2018-12-15T09:19:00.363Z,2.66
2018-12-15T09:21:28.664Z,2.77
2018-12-15T09:23:56.833Z,3.10
2018-12-15T09:26:25.041Z,3.37
2018-12-15T09:28:53.279Z,3.42
2018-12-15T09:31:21.562Z,3.57
2018-12-15T09:33:49.779Z,3.65
2018-12-15T09:36:17.964Z,3.75
2018-12-15T09:38:46.148Z,3.92
2018-12-15T09:41:14.340Z,4.14
2018-12-15T09:43:42.520Z,4.05
2018-12-15T09:46:10.702Z,4.20
2018-12-15T09:48:38.917Z,4.32
2018-12-15T09:51:07.093Z,4.48
2018-12-15T09:53:35.261Z,4.31
2018-12-15T09:56:03.448Z,4.02
2018-12-15T09:58:31.627Z,3.98
2018-12-15T10:00:59.807Z,3.84
2018-12-15T10:03:28.006Z,3.62
2018-12-15T10:05:56.195Z,3.70
2018-12-15T10:08:24.489Z,3.57
2018-12-15T10:10:52.690Z,3.53
2018-12-15T10:13:20.932Z,3.80
2018-12-15T10:15:49.106Z,3.94
2018-12-15T10:18:17.333Z,4.10
2018-12-15T10:20:45.505Z,4.43
2018-12-15T10:23:13.710Z,4.82
2018-12-15T10:25:41.903Z,5.29
2018-12-15T10:28:10.252Z,5.74
2018-12-15T10:30:44.117Z,6.23
2018-12-15T10:33:12.315Z,6.81
2018-12-15T10:35:40.493Z,7.95
2018-12-15T10:38:08.810Z,9.94
2018-12-15T10:40:36.988Z,11.59
2018-12-15T10:43:05.164Z,12.05
2018-12-15T10:45:33.412Z,11.93
2018-12-15T10:48:01.586Z,13.43
2018-12-15T10:50:29.760Z,14.54
2018-12-15T10:52:57.986Z,16.24
2018-12-15T10:55:26.315Z,17.82
2018-12-15T10:57:54.493Z,19.96
2018-12-15T11:00:26.553Z,20.74
2018-12-15T11:02:55.133Z,19.82
2018-12-15T11:05:24.637Z,20.21
2018-12-15T11:07:52.845Z,19.68
2018-12-15T11:10:21.117Z,20.75
2018-12-15T11:12:49.317Z,22.44
2018-12-15T11:15:17.592Z,23.15
2018-12-15T11:17:45.866Z,21.84
2018-12-15T11:20:14.130Z,21.92
2018-12-15T11:22:42.325Z,22.72
2018-12-15T11:25:10.505Z,22.08
2018-12-15T11:27:38.756Z,19.38
2018-12-15T11:30:06.950Z,18.56
2018-12-15T11:32:35.129Z,18.71
2018-12-15T11:35:05.316Z,20.49
2018-12-15T11:37:33.629Z,22.58
2018-12-15T11:40:01.798Z,23.69
2018-12-15T11:42:29.992Z,24.60
2018-12-15T11:44:58.223Z,24.19
2018-12-15T11:47:26.396Z,23.60
2018-12-15T11:49:54.570Z,24.36
2018-12-15T11:52:22.828Z,24.87
2018-12-15T11:54:51.124Z,26.05
2018-12-15T11:57:19.299Z,25.65
2018-12-15T11:59:47.596Z,24.76
2018-12-15T12:02:15.879Z,23.95
2018-12-15T12:04:44.070Z,24.16
2018-12-15T12:07:12.280Z,23.92
2018-12-15T12:09:40.485Z,25.23
2018-12-15T12:12:08.662Z,26.76
2018-12-15T12:14:36.922Z,27.25
2018-12-15T12:17:05.098Z,28.23
2018-12-15T12:19:33.353Z,28.38
2018-12-15T12:22:01.554Z,28.74
2018-12-15T12:24:29.750Z,28.42
2018-12-15T12:26:58.181Z,27.37
2018-12-15T12:29:26.389Z,26.13
2018-12-15T12:31:54.553Z,25.96
2018-12-15T12:34:22.728Z,25.23
2018-12-15T12:36:50.933Z,25.75
2018-12-15T12:39:19.121Z,26.41
2018-12-15T12:41:47.308Z,26.65
2018-12-15T12:44:15.532Z,27.39
2018-12-15T12:46:43.762Z,27.66
2018-12-15T12:49:11.936Z,27.54
2018-12-15T12:51:40.141Z,28.18
2018-12-15T12:54:08.460Z,25.38
2018-12-15T12:56:36.670Z,24.73
2018-12-15T12:59:04.882Z,24.51
2018-12-15T13:01:34.326Z,24.76
2018-12-15T13:04:02.666Z,25.05
2018-12-15T13:06:30.913Z,24.82
2018-12-15T13:08:59.098Z,24.79
2018-12-15T13:11:27.286Z,24.76
2018-12-15T13:13:55.476Z,23.22
2018-12-15T13:16:23.812Z,23.43
2018-12-15T13:18:51.990Z,23.72
2018-12-15T13:21:20.223Z,23.06
2018-12-15T13:23:48.407Z,21.59
2018-12-15T13:26:16.594Z,21.73
2018-12-15T13:28:44.930Z,21.47
2018-12-15T13:31:13.101Z,21.03
2018-12-15T13:33:41.274Z,19.91
2018-12-15T13:36:13.344Z,18.85
2018-12-15T13:38:41.792Z,17.69
2018-12-15T13:41:09.964Z,16.78
2018-12-15T13:43:38.159Z,16.18
2018-12-15T13:46:06.339Z,16.06
2018-12-15T13:48:34.514Z,15.97
2018-12-15T13:51:02.708Z,15.45
2018-12-15T13:53:30.961Z,15.26
2018-12-15T13:55:59.245Z,15.43
2018-12-15T13:58:27.459Z,15.13
2018-12-15T14:00:55.636Z,14.17
2018-12-15T14:03:23.922Z,13.66
2018-12-15T14:05:52.125Z,14.04
2018-12-15T14:08:20.297Z,14.43
2018-12-15T14:10:48.469Z,14.98
2018-12-15T14:13:16.666Z,14.27
2018-12-15T14:15:44.839Z,12.92
2018-12-15T14:18:13.100Z,11.90
2018-12-15T14:20:41.459Z,10.68
2018-12-15T14:23:09.630Z,9.67
2018-12-15T14:25:37.848Z,8.48
2018-12-15T14:28:06.040Z,7.84
2018-12-15T14:30:34.204Z,7.44
2018-12-15T14:33:02.362Z,6.81
2018-12-15T14:35:30.753Z,6.66
2018-12-15T14:37:58.908Z,6.29
2018-12-15T14:40:27.080Z,5.83
2018-12-15T14:42:55.263Z,5.79
2018-12-15T14:45:23.420Z,5.36
2018-12-15T14:47:51.599Z,5.04
2018-12-15T14:50:23.417Z,4.66
2018-12-15T14:52:50.216Z,4.44
2018-12-15T14:55:18.403Z,4.17
2018-12-15T14:57:46.611Z,3.98
2018-12-15T15:00:14.779Z,3.86
2018-12-15T15:02:42.963Z,3.74
2018-12-15T15:05:11.162Z,3.64
2018-12-15T15:07:39.323Z,3.74
2018-12-15T15:10:07.515Z,3.48
2018-12-15T15:12:35.710Z,3.38
2018-12-15T15:15:05.267Z,3.41
2018-12-15T15:17:33.512Z,3.37
2018-12-15T15:20:01.735Z,3.18
2018-12-15T15:22:29.921Z,3.15
2018-12-15T15:24:58.329Z,3.11
2018-12-15T15:27:26.542Z,3.11
2018-12-15T15:29:54.836Z,3.21
2018-12-15T15:32:23.012Z,3.16
2018-12-15T15:34:51.219Z,3.12
2018-12-15T15:37:19.409Z,3.08
2018-12-15T15:39:47.679Z,3.09
2018-12-15T15:42:15.901Z,2.99
2018-12-15T15:44:44.064Z,3.07
2018-12-15T15:47:12.249Z,2.90
2018-12-15T15:49:40.565Z,2.96
2018-12-15T15:52:08.872Z,3.15
2018-12-15T15:54:37.061Z,3.08
2018-12-15T15:57:05.274Z,2.99
2018-12-15T15:59:33.442Z,3.00
2018-12-15T16:02:01.612Z,2.97
2018-12-15T16:04:29.807Z,3.04
2018-12-15T16:06:58.097Z,2.81
2018-12-15T16:09:26.273Z,2.88
2018-12-15T16:11:54.497Z,2.87
2018-12-15T16:14:22.669Z,2.83
2018-12-15T16:16:50.858Z,2.70
2018-12-15T16:19:19.055Z,2.59
2018-12-15T16:21:47.239Z,2.69
2018-12-15T16:24:15.405Z,2.60
2018-12-15T16:26:43.739Z,2.52
2018-12-15T16:29:11.924Z,2.58
2018-12-15T16:31:40.287Z,2.50
2018-12-15T16:34:08.493Z,2.42
2018-12-15T16:36:36.711Z,2.52
2018-12-15T16:39:06.773Z,2.45
2018-12-15T16:41:34.966Z,2.40
2018-12-15T16:44:03.137Z,2.48
2018-12-15T16:46:31.458Z,2.49
2018-12-15T16:48:59.944Z,2.60
2018-12-15T16:51:28.225Z,2.45
2018-12-15T16:53:56.397Z,2.53
2018-12-15T16:56:24.593Z,2.58
2018-12-15T16:58:52.771Z,2.43
2018-12-15T17:01:20.957Z,2.43
2018-12-15T17:03:49.264Z,2.31
2018-12-15T17:06:17.456Z,2.37
2018-12-15T17:08:45.644Z,2.39
2018-12-15T17:11:13.925Z,2.41
2018-12-15T17:13:42.110Z,2.40
2018-12-15T17:16:10.277Z,2.34
2018-12-15T17:18:38.479Z,2.37
2018-12-15T17:21:06.664Z,2.35
2018-12-15T17:23:34.849Z,2.42
2018-12-15T17:26:03.072Z,2.35
2018-12-15T17:28:31.397Z,2.51
2018-12-15T17:30:59.812Z,2.45
2018-12-15T17:33:28.003Z,2.47
2018-12-15T17:35:56.181Z,2.49
2018-12-15T17:38:24.355Z,2.43
2018-12-15T17:40:52.568Z,2.41
2018-12-15T17:43:20.744Z,2.34
2018-12-15T17:45:48.948Z,2.32
2018-12-15T17:48:17.157Z,2.35
2018-12-15T17:50:45.429Z,2.29
2018-12-15T17:53:13.599Z,2.32
2018-12-15T17:55:41.804Z,2.30
2018-12-15T17:58:14.702Z,2.38
2018-12-15T18:00:40.175Z,2.20
2018-12-15T18:03:08.378Z,2.27
2018-12-15T18:05:36.548Z,2.20
2018-12-15T18:08:04.731Z,2.34
2018-12-15T18:10:33.791Z,2.25
2018-12-15T18:13:02.069Z,2.40
2018-12-15T18:15:30.304Z,2.25
2018-12-15T18:17:58.525Z,2.20
2018-12-15T18:20:26.801Z,2.31
2018-12-15T18:22:54.996Z,2.29
2018-12-15T18:25:23.173Z,2.26
2018-12-15T18:27:51.369Z,2.22
2018-12-15T18:30:19.651Z,2.20
2018-12-15T18:32:47.854Z,2.16
2018-12-15T18:35:16.068Z,2.11
2018-12-15T18:37:44.242Z,2.21
2018-12-15T18:40:12.446Z,2.00
2018-12-15T18:42:40.643Z,2.03
2018-12-15T18:45:09.703Z,1.88
2018-12-15T18:47:37.955Z,1.83
2018-12-15T18:50:08.592Z,1.84
2018-12-15T18:52:36.963Z,1.84
2018-12-15T18:55:05.191Z,1.85
2018-12-15T18:57:33.373Z,1.88
2018-12-15T19:00:01.548Z,1.68
2018-12-15T19:05:04.776Z,1.66
2018-12-15T19:07:33.015Z,1.51
2018-12-15T19:10:01.265Z,1.60
2018-12-15T19:12:29.442Z,1.57
2018-12-15T19:14:57.718Z,1.58
2018-12-15T19:17:25.890Z,1.38
2018-12-15T19:19:54.216Z,1.46
2018-12-15T19:22:22.416Z,1.55
2018-12-15T19:24:50.628Z,1.51
2018-12-15T19:27:18.803Z,1.48
2018-12-15T19:29:47.004Z,1.46
2018-12-15T19:32:15.289Z,1.42
2018-12-15T19:34:43.516Z,1.44
2018-12-15T19:37:11.701Z,1.38
2018-12-15T19:39:39.890Z,1.31
2018-12-15T19:42:08.072Z,1.20
2018-12-15T19:44:36.276Z,1.16
2018-12-15T19:47:04.446Z,1.14
2018-12-15T19:49:32.627Z,1.24
2018-12-15T19:52:00.838Z,1.11
2018-12-15T19:54:29.015Z,1.14
2018-12-15T19:56:57.200Z,1.10
2018-12-15T19:59:25.383Z,1.00
2018-12-15T20:01:53.581Z,1.04
2018-12-15T20:04:21.766Z,1.01
2018-12-15T20:06:49.958Z,1.21
2018-12-15T20:09:18.146Z,1.18
2018-12-15T20:11:46.460Z,1.03
2018-12-15T20:14:14.742Z,1.02
2018-12-15T20:16:42.923Z,1.09
2018-12-15T20:19:11.100Z,1.06
2018-12-15T20:21:39.319Z,1.08
2018-12-15T20:24:07.640Z,1.01
2018-12-15T20:26:35.907Z,0.95
2018-12-15T20:29:04.226Z,0.98
2018-12-15T20:31:32.636Z,0.91
2018-12-15T20:34:00.816Z,0.79
2018-12-15T20:36:29.005Z,0.73
2018-12-15T20:38:57.176Z,0.65
2018-12-15T20:41:25.406Z,0.59
2018-12-15T20:43:53.632Z,0.53
2018-12-15T20:46:21.814Z,0.50
2018-12-15T20:48:49.988Z,0.47
2018-12-15T20:51:18.256Z,0.37
2018-12-15T20:53:46.440Z,0.36
2018-12-15T20:56:14.686Z,0.39
2018-12-15T20:58:42.975Z,0.33
2018-12-15T21:01:11.146Z,0.26
2018-12-15T21:03:39.332Z,0.26
2018-12-15T21:06:07.534Z,0.31
2018-12-15T21:08:35.736Z,0.27
2018-12-15T21:11:04.202Z,0.22
2018-12-15T21:13:32.393Z,0.17
2018-12-15T21:16:00.651Z,0.13
2018-12-15T21:18:28.804Z,0.14
2018-12-15T21:20:57.002Z,0.11
2018-12-15T21:23:25.179Z,0.04
2018-12-15T21:25:53.373Z,-0.03
2018-12-15T21:28:21.577Z,-0.04
2018-12-15T21:30:49.778Z,-0.04
2018-12-15T21:33:17.970Z,-0.05
2018-12-15T21:35:46.192Z,-0.07
2018-12-15T21:38:14.383Z,-0.09
2018-12-15T21:40:42.571Z,-0.13
2018-12-15T21:43:10.777Z,-0.18
2018-12-15T21:45:38.984Z,-0.23
2018-12-15T21:48:07.168Z,-0.27
2018-12-15T21:50:35.370Z,-0.28
2018-12-15T21:53:03.568Z,-0.25
2018-12-15T21:55:31.763Z,-0.37
2018-12-15T21:57:59.976Z,-0.50
2018-12-15T22:00:28.562Z,-0.50
2018-12-15T22:02:56.764Z,-0.54
2018-12-15T22:05:25.200Z,-0.64
2018-12-15T22:07:53.378Z,-0.70
2018-12-15T22:10:21.756Z,-0.61
2018-12-15T22:12:49.958Z,-0.62
2018-12-15T22:15:18.133Z,-0.66
2018-12-15T22:17:46.316Z,-0.75
2018-12-15T22:20:15.013Z,-0.82
2018-12-15T22:22:43.194Z,-0.91
2018-12-15T22:25:11.394Z,-0.98
2018-12-15T22:27:39.604Z,-1.07
2018-12-15T22:30:08.307Z,-1.13
2018-12-15T22:32:36.483Z,-1.14
2018-12-15T22:35:05.351Z,-1.25
2018-12-15T22:37:33.544Z,-1.35
2018-12-15T22:40:01.725Z,-1.36
2018-12-15T22:42:29.932Z,-1.38
2018-12-15T22:44:58.173Z,-1.41
2018-12-15T22:47:26.365Z,-1.49
2018-12-15T22:49:54.572Z,-1.46
2018-12-15T22:52:22.778Z,-1.47
2018-12-15T22:54:50.985Z,-1.55
2018-12-15T22:57:19.272Z,-1.53
2018-12-15T22:59:47.448Z,-1.51
2018-12-15T23:02:15.660Z,-1.45
2018-12-15T23:04:44.230Z,-1.46
2018-12-15T23:07:12.494Z,-1.56
2018-12-15T23:09:40.700Z,-1.61
2018-12-15T23:12:08.919Z,-1.61
2018-12-15T23:14:37.107Z,-1.60
2018-12-15T23:17:06.488Z,-1.61
2018-12-15T23:19:34.711Z,-1.54
2018-12-15T23:22:02.890Z,-1.60
2018-12-15T23:24:31.075Z,-1.52
2018-12-15T23:26:59.312Z,-1.55
2018-12-15T23:29:27.501Z,-1.55
2018-12-15T23:31:55.684Z,-1.62
2018-12-15T23:34:24.014Z,-1.73
2018-12-15T23:36:52.436Z,-1.76
2018-12-15T23:39:20.740Z,-1.83
2018-12-15T23:41:48.954Z,-1.88
2018-12-15T23:44:17.269Z,-1.85
2018-12-15T23:46:45.576Z,-1.79
2018-12-15T23:49:13.927Z,-1.85
2018-12-15T23:51:42.103Z,-1.90
2018-12-15T23:54:10.281Z,-1.90
2018-12-15T23:56:38.503Z,-1.93
2018-12-15T23:59:07.087Z,-1.98
